createdAt,value
2018-09-19T00:01:48.367Z,96.20
2018-09-19T00:04:16.616Z,96.40
2018-09-19T00:06:44.862Z,96.60
2018-09-19T00:09:13.218Z,96.00
2018-09-19T00:11:41.480Z,96.10
2018-09-19T00:14:10.621Z,95.80
2018-09-19T00:16:38.819Z,96.70
2018-09-19T00:19:07.079Z,96.30
2018-09-19T00:21:35.300Z,96.20
2018-09-19T00:24:03.521Z,96.10
2018-09-19T00:26:31.750Z,95.30
2018-09-19T00:29:00.000Z,95.70
2018-09-19T00:31:28.216Z,96.00
2018-09-19T00:33:56.458Z,96.30
2018-09-19T00:36:25.119Z,96.60
2018-09-19T00:38:53.620Z,96.80
2018-09-19T00:41:21.855Z,97.40
2018-09-19T00:43:50.091Z,97.50
2018-09-19T00:46:18.295Z,97.90
2018-09-19T00:48:46.555Z,97.80
2018-09-19T00:51:14.937Z,98.00
2018-09-19T00:53:43.280Z,98.10
2018-09-19T00:56:11.485Z,97.90
2018-09-19T00:58:39.768Z,97.70
2018-09-19T01:01:07.989Z,97.30
2018-09-19T01:03:36.235Z,96.70
2018-09-19T01:06:04.442Z,96.50
2018-09-19T01:08:32.676Z,96.60
2018-09-19T01:11:00.897Z,96.60
2018-09-19T01:13:29.192Z,96.60
2018-09-19T01:15:57.412Z,96.80
2018-09-19T01:18:25.648Z,96.60
2018-09-19T01:20:53.864Z,96.70
2018-09-19T01:23:22.092Z,96.30
2018-09-19T01:25:50.325Z,96.60
2018-09-19T01:28:18.565Z,96.80
2018-09-19T01:30:46.811Z,96.40
2018-09-19T01:33:15.119Z,96.80
2018-09-19T01:35:43.332Z,97.50
2018-09-19T01:38:11.575Z,98.00
2018-09-19T01:40:39.797Z,98.40
2018-09-19T01:43:08.039Z,99.40
2018-09-19T01:45:36.300Z,99.90
2018-09-19T01:48:04.669Z,99.90
2018-09-19T01:50:32.900Z,99.90
2018-09-19T01:53:01.120Z,99.90
2018-09-19T01:55:29.342Z,99.90
2018-09-19T01:57:57.599Z,99.90
2018-09-19T02:00:25.840Z,99.90
2018-09-19T02:02:54.049Z,99.90
2018-09-19T02:05:22.272Z,99.90
2018-09-19T02:07:50.496Z,99.90
2018-09-19T02:10:18.764Z,99.90
2018-09-19T02:12:46.979Z,99.90
2018-09-19T02:15:15.207Z,99.90
2018-09-19T02:17:43.400Z,99.90
2018-09-19T02:20:11.661Z,99.90
2018-09-19T02:22:39.859Z,99.90
2018-09-19T02:25:08.100Z,99.90
2018-09-19T02:27:36.314Z,99.90
2018-09-19T02:30:04.573Z,99.90
2018-09-19T02:32:32.792Z,99.90
2018-09-19T02:35:01.033Z,99.90
2018-09-19T02:37:29.254Z,99.90
2018-09-19T02:39:57.492Z,99.90
2018-09-19T02:42:25.742Z,99.90
2018-09-19T02:44:53.998Z,99.90
2018-09-19T02:47:22.317Z,99.90
2018-09-19T02:49:50.556Z,99.90
2018-09-19T02:52:18.770Z,99.90
2018-09-19T02:54:47.034Z,99.90
2018-09-19T02:57:15.209Z,99.90
2018-09-19T02:59:43.439Z,99.90
2018-09-19T03:02:11.672Z,99.90
2018-09-19T03:04:39.928Z,99.90
2018-09-19T03:07:08.136Z,99.90
2018-09-19T03:09:36.372Z,99.90
2018-09-19T03:12:04.604Z,99.90
2018-09-19T03:14:32.825Z,99.90
2018-09-19T03:17:01.099Z,99.90
2018-09-19T03:19:29.291Z,99.90
2018-09-19T03:21:57.513Z,99.90
2018-09-19T03:24:25.793Z,99.90
2018-09-19T03:26:54.024Z,99.90
2018-09-19T03:29:22.251Z,99.90
2018-09-19T03:31:50.462Z,99.90
2018-09-19T03:34:18.700Z,99.90
2018-09-19T03:36:46.895Z,99.90
2018-09-19T03:39:15.111Z,99.90
2018-09-19T03:41:43.344Z,99.90
2018-09-19T03:44:11.575Z,99.90
2018-09-19T03:46:39.874Z,99.90
2018-09-19T03:49:08.700Z,99.90
2018-09-19T03:51:37.504Z,99.90
2018-09-19T03:54:05.786Z,99.90
2018-09-19T03:56:34.009Z,99.90
2018-09-19T03:59:02.248Z,99.90
2018-09-19T04:01:30.475Z,99.90
2018-09-19T04:03:58.717Z,99.90
2018-09-19T04:06:26.961Z,99.90
2018-09-19T04:08:55.836Z,99.90
2018-09-19T04:11:24.155Z,99.90
2018-09-19T04:13:52.375Z,99.90
2018-09-19T04:16:20.604Z,99.90
2018-09-19T04:18:48.836Z,99.90
2018-09-19T04:21:17.112Z,99.90
2018-09-19T04:23:45.330Z,99.90
2018-09-19T04:26:13.600Z,99.90
2018-09-19T04:28:42.225Z,99.90
2018-09-19T04:31:10.481Z,99.90
2018-09-19T04:33:38.686Z,99.90
2018-09-19T04:36:06.912Z,99.90
2018-09-19T04:38:35.160Z,99.90
2018-09-19T04:41:03.403Z,99.90
2018-09-19T04:43:31.624Z,99.90
2018-09-19T04:45:59.882Z,99.90
2018-09-19T04:48:28.262Z,99.90
2018-09-19T04:50:56.555Z,99.90
2018-09-19T04:53:24.784Z,99.90
2018-09-19T04:55:53.005Z,99.90
2018-09-19T04:58:21.219Z,99.90
2018-09-19T05:00:49.445Z,99.90
2018-09-19T05:03:17.685Z,99.90
2018-09-19T05:05:46.017Z,99.90
2018-09-19T05:08:14.232Z,99.90
2018-09-19T05:10:42.472Z,99.90
2018-09-19T05:13:10.678Z,99.90
2018-09-19T05:15:38.921Z,99.90
2018-09-19T05:18:07.136Z,99.90
2018-09-19T05:20:35.358Z,99.90
2018-09-19T05:23:03.562Z,99.90
2018-09-19T05:25:32.368Z,99.90
2018-09-19T05:28:00.601Z,99.90
2018-09-19T05:30:29.183Z,99.90
2018-09-19T05:32:57.401Z,99.90
2018-09-19T05:35:25.632Z,99.90
2018-09-19T05:37:53.918Z,99.90
2018-09-19T05:40:22.144Z,99.90
2018-09-19T05:42:50.419Z,99.90
2018-09-19T05:45:18.631Z,99.90
2018-09-19T05:47:46.948Z,99.90
2018-09-19T05:50:15.208Z,99.90
2018-09-19T05:52:43.452Z,99.90
2018-09-19T05:55:11.721Z,99.90
2018-09-19T05:57:39.963Z,99.90
2018-09-19T06:00:08.196Z,99.90
2018-09-19T06:02:36.465Z,99.90
2018-09-19T06:05:04.842Z,99.90
2018-09-19T06:07:33.037Z,99.90
2018-09-19T06:10:01.277Z,99.90
2018-09-19T06:12:29.488Z,99.90
2018-09-19T06:14:57.704Z,99.90
2018-09-19T06:17:25.946Z,99.90
2018-09-19T06:19:54.152Z,99.90
2018-09-19T06:22:22.401Z,99.90
2018-09-19T06:24:50.665Z,99.90
2018-09-19T06:27:18.908Z,99.90
2018-09-19T06:29:47.147Z,99.90
2018-09-19T06:32:15.400Z,99.90
2018-09-19T06:34:43.640Z,99.90
2018-09-19T06:37:12.071Z,99.90
2018-09-19T06:39:40.294Z,99.90
2018-09-19T06:42:08.541Z,99.70
2018-09-19T06:44:36.753Z,98.10
2018-09-19T06:47:05.026Z,97.30
2018-09-19T06:49:33.268Z,96.80
2018-09-19T06:52:01.606Z,96.40
2018-09-19T06:54:29.771Z,95.90
2018-09-19T06:56:58.051Z,95.70
2018-09-19T06:59:26.340Z,95.90
2018-09-19T07:01:54.625Z,95.70
2018-09-19T07:04:23.146Z,95.60
2018-09-19T07:06:51.403Z,95.50
2018-09-19T07:09:19.612Z,94.90
2018-09-19T07:11:47.842Z,93.80
2018-09-19T07:14:16.045Z,92.80
2018-09-19T07:16:44.264Z,91.30
2018-09-19T07:19:12.490Z,87.40
2018-09-19T07:21:40.752Z,73.10
2018-09-19T07:24:09.002Z,60.10
2018-09-19T07:26:37.413Z,58.70
2018-09-19T07:29:05.656Z,55.80
2018-09-19T07:31:33.899Z,50.60
2018-09-19T07:34:02.222Z,47.10
2018-09-19T07:36:30.448Z,48.90
2018-09-19T07:38:58.694Z,51.80
2018-09-19T07:41:26.934Z,51.10
2018-09-19T07:43:55.275Z,48.60
2018-09-19T07:46:23.665Z,48.30
2018-09-19T07:48:51.867Z,48.20
2018-09-19T07:51:20.113Z,47.50
2018-09-19T07:53:48.335Z,46.60
2018-09-19T07:56:16.554Z,46.40
2018-09-19T07:58:44.808Z,46.60
2018-09-19T08:01:13.211Z,48.90
2018-09-19T08:03:41.371Z,49.60
2018-09-19T08:06:09.603Z,50.90
2018-09-19T08:08:37.849Z,48.40
2018-09-19T08:11:06.160Z,45.90
2018-09-19T08:13:34.384Z,44.30
2018-09-19T08:16:02.612Z,43.70
2018-09-19T08:18:30.908Z,44.70
2018-09-19T08:20:59.106Z,45.10
2018-09-19T08:23:27.331Z,44.60
2018-09-19T08:25:55.732Z,42.30
2018-09-19T08:28:23.986Z,42.00
2018-09-19T08:30:52.224Z,43.80
2018-09-19T08:33:20.476Z,43.70
2018-09-19T08:35:48.679Z,41.80
2018-09-19T08:38:16.901Z,39.60
2018-09-19T08:40:45.124Z,38.80
2018-09-19T08:43:13.365Z,37.80
2018-09-19T08:45:41.601Z,35.80
2018-09-19T08:48:09.843Z,34.60
2018-09-19T08:50:38.129Z,33.00
2018-09-19T08:53:06.354Z,32.60
2018-09-19T08:55:34.603Z,32.70
2018-09-19T08:58:02.872Z,32.50
2018-09-19T09:00:31.110Z,33.00
2018-09-19T09:02:59.481Z,35.10
2018-09-19T09:05:27.779Z,33.60
2018-09-19T09:07:56.004Z,34.40
2018-09-19T09:10:24.244Z,33.60
2018-09-19T09:12:52.480Z,35.00
2018-09-19T09:15:20.703Z,33.70
2018-09-19T09:17:48.936Z,32.90
2018-09-19T09:20:17.145Z,33.90
2018-09-19T09:22:45.372Z,33.90
2018-09-19T09:25:13.630Z,35.50
2018-09-19T09:27:41.912Z,33.50
2018-09-19T09:30:10.187Z,33.20
2018-09-19T09:32:38.492Z,34.00
2018-09-19T09:35:06.742Z,33.80
2018-09-19T09:37:35.041Z,34.60
2018-09-19T09:40:03.287Z,36.50
2018-09-19T09:42:31.573Z,36.80
2018-09-19T09:44:59.827Z,36.10
2018-09-19T09:47:28.106Z,36.60
2018-09-19T09:49:57.367Z,37.00
2018-09-19T09:52:25.600Z,38.10
2018-09-19T09:54:53.848Z,40.10
2018-09-19T09:57:22.129Z,42.90
2018-09-19T09:59:50.388Z,44.80
2018-09-19T10:02:18.571Z,46.90
2018-09-19T10:04:46.793Z,46.40
2018-09-19T10:07:15.016Z,48.30
2018-09-19T10:09:43.261Z,47.50
2018-09-19T10:12:11.486Z,48.30
2018-09-19T10:14:39.735Z,47.60
2018-09-19T10:17:08.065Z,47.80
2018-09-19T10:19:36.332Z,47.20
2018-09-19T10:22:04.635Z,48.10
2018-09-19T10:24:32.876Z,48.20
2018-09-19T10:27:01.087Z,47.40
2018-09-19T10:29:29.330Z,47.40
2018-09-19T10:31:57.571Z,47.40
2018-09-19T10:34:25.891Z,47.00
2018-09-19T10:36:54.188Z,46.70
2018-09-19T10:39:22.415Z,46.70
2018-09-19T10:41:50.803Z,46.50
2018-09-19T10:44:19.046Z,46.90
2018-09-19T10:46:47.265Z,47.70
2018-09-19T10:49:15.512Z,46.80
2018-09-19T10:51:43.706Z,47.50
2018-09-19T10:54:11.962Z,48.00
2018-09-19T10:56:40.186Z,46.50
2018-09-19T10:59:08.954Z,46.80
2018-09-19T11:01:37.160Z,46.50
2018-09-19T11:04:05.390Z,47.10
2018-09-19T11:06:33.605Z,47.30
2018-09-19T11:09:01.829Z,46.00
2018-09-19T11:11:30.017Z,46.60
2018-09-19T11:13:58.257Z,45.20
2018-09-19T11:16:26.474Z,44.60
2018-09-19T11:18:54.706Z,44.70
2018-09-19T11:21:22.960Z,45.20
2018-09-19T11:23:51.196Z,45.30
2018-09-19T11:26:19.517Z,45.40
2018-09-19T11:28:47.684Z,45.80
2018-09-19T11:31:15.898Z,45.80
2018-09-19T11:33:44.253Z,45.50
2018-09-19T11:36:12.454Z,45.10
2018-09-19T11:38:40.651Z,45.50
2018-09-19T11:41:09.329Z,45.40
2018-09-19T11:43:37.891Z,44.70
2018-09-19T11:46:06.129Z,45.10
2018-09-19T11:48:34.415Z,45.50
2018-09-19T11:51:02.631Z,45.00
2018-09-19T11:53:30.855Z,44.40
2018-09-19T11:56:00.107Z,44.60
2018-09-19T11:58:29.331Z,43.90
2018-09-19T12:00:57.565Z,44.90
2018-09-19T12:03:26.053Z,43.90
2018-09-19T12:05:54.272Z,43.50
2018-09-19T12:08:22.485Z,42.90
2018-09-19T12:10:50.713Z,43.30
2018-09-19T12:13:18.940Z,43.20
2018-09-19T12:15:47.154Z,43.50
2018-09-19T12:18:15.382Z,43.10
2018-09-19T12:20:43.612Z,42.70
2018-09-19T12:23:12.738Z,42.90
2018-09-19T12:25:40.996Z,44.00
2018-09-19T12:28:09.512Z,43.20
2018-09-19T12:30:37.736Z,42.80
2018-09-19T12:33:05.984Z,42.30
2018-09-19T12:35:34.219Z,42.10
2018-09-19T12:38:02.428Z,42.70
2018-09-19T12:40:30.639Z,42.80
2018-09-19T12:42:58.874Z,43.40
2018-09-19T12:45:27.117Z,43.00
2018-09-19T12:47:55.332Z,42.10
2018-09-19T12:50:23.578Z,42.30
2018-09-19T12:52:51.783Z,43.00
2018-09-19T12:55:20.016Z,43.10
2018-09-19T12:57:48.232Z,43.40
2018-09-19T13:00:16.455Z,43.50
2018-09-19T13:02:44.639Z,42.20
2018-09-19T13:05:12.930Z,41.90
2018-09-19T13:07:41.156Z,42.30
2018-09-19T13:10:09.357Z,43.30
2018-09-19T13:12:37.619Z,41.90
2018-09-19T13:15:05.841Z,42.00
2018-09-19T13:17:34.064Z,42.90
2018-09-19T13:20:02.297Z,42.30
2018-09-19T13:22:30.530Z,42.60
2018-09-19T13:24:58.775Z,42.60
2018-09-19T13:27:26.997Z,42.80
2018-09-19T13:29:55.288Z,42.90
2018-09-19T13:32:23.564Z,43.20
2018-09-19T13:34:51.795Z,43.00
2018-09-19T13:37:20.076Z,43.00
2018-09-19T13:39:48.311Z,43.00
2018-09-19T13:42:16.643Z,43.30
2018-09-19T13:44:44.920Z,43.20
2018-09-19T13:47:13.156Z,43.50
2018-09-19T13:49:44.788Z,43.20
2018-09-19T13:52:14.011Z,43.00
2018-09-19T13:54:42.303Z,43.20
2018-09-19T13:57:10.601Z,43.40
2018-09-19T13:59:38.909Z,43.60
2018-09-19T14:02:07.202Z,43.80
2018-09-19T14:04:35.409Z,43.40
2018-09-19T14:07:03.650Z,43.50
2018-09-19T14:09:31.875Z,43.80
2018-09-19T14:12:00.112Z,43.40
2018-09-19T14:14:28.327Z,43.60
2018-09-19T14:16:56.613Z,43.70
2018-09-19T14:19:24.829Z,43.50
2018-09-19T14:21:53.068Z,43.70
2018-09-19T14:24:21.291Z,43.60
2018-09-19T14:26:49.617Z,43.60
2018-09-19T14:29:17.847Z,43.90
2018-09-19T14:31:46.089Z,43.10
2018-09-19T14:34:14.312Z,43.20
2018-09-19T14:36:42.570Z,43.40
2018-09-19T14:39:10.793Z,43.90
2018-09-19T14:41:39.034Z,43.60
2018-09-19T14:44:07.279Z,43.80
2018-09-19T14:46:35.545Z,43.70
2018-09-19T14:49:04.490Z,43.40
2018-09-19T14:51:32.740Z,43.40
2018-09-19T14:54:00.993Z,44.90
2018-09-19T14:56:29.237Z,43.50
2018-09-19T14:58:57.536Z,43.30
2018-09-19T15:01:25.776Z,44.10
2018-09-19T15:03:54.005Z,44.00
2018-09-19T15:06:22.220Z,44.10
2018-09-19T15:08:50.449Z,44.50
2018-09-19T15:11:18.675Z,43.90
2018-09-19T15:13:46.911Z,44.00
2018-09-19T15:16:15.157Z,44.10
2018-09-19T15:18:43.392Z,43.90
2018-09-19T15:21:11.618Z,44.20
2018-09-19T15:23:39.855Z,44.00
2018-09-19T15:26:08.144Z,44.70
2018-09-19T15:28:36.443Z,44.20
2018-09-19T15:31:04.637Z,44.20
2018-09-19T15:33:32.891Z,44.40
2018-09-19T15:36:01.135Z,44.50
2018-09-19T15:38:29.447Z,44.70
2018-09-19T15:40:57.644Z,45.10
2018-09-19T15:43:25.875Z,44.40
2018-09-19T15:45:54.091Z,45.20
2018-09-19T15:48:22.344Z,45.30
2018-09-19T15:50:50.572Z,45.60
2018-09-19T15:53:18.791Z,45.80
2018-09-19T15:55:47.015Z,46.10
2018-09-19T15:58:15.308Z,46.70
2018-09-19T16:00:43.577Z,46.60
2018-09-19T16:03:11.839Z,47.20
2018-09-19T16:05:40.125Z,47.40
2018-09-19T16:08:08.344Z,47.40
2018-09-19T16:10:36.577Z,47.50
2018-09-19T16:13:04.819Z,47.70
2018-09-19T16:15:33.060Z,47.70
2018-09-19T16:18:01.324Z,49.50
2018-09-19T16:20:29.552Z,48.80
2018-09-19T16:22:57.814Z,49.60
2018-09-19T16:25:26.064Z,49.60
2018-09-19T16:27:54.340Z,49.90
2018-09-19T16:30:22.560Z,51.20
2018-09-19T16:32:50.784Z,52.70
2018-09-19T16:35:19.044Z,52.50
2018-09-19T16:37:47.296Z,54.10
2018-09-19T16:40:15.515Z,55.20
2018-09-19T16:42:43.768Z,56.40
2018-09-19T16:45:11.975Z,55.60
2018-09-19T16:47:40.249Z,56.80
2018-09-19T16:50:08.485Z,56.60
2018-09-19T16:52:36.755Z,57.20
2018-09-19T16:55:05.130Z,57.80
2018-09-19T16:57:33.335Z,58.00
2018-09-19T17:00:01.581Z,58.60
2018-09-19T17:02:29.797Z,58.80
2018-09-19T17:04:58.032Z,61.90
2018-09-19T17:07:26.281Z,62.40
2018-09-19T17:09:54.511Z,63.00
2018-09-19T17:12:22.703Z,63.10
2018-09-19T17:14:50.979Z,64.20
2018-09-19T17:17:19.206Z,63.60
2018-09-19T17:19:47.482Z,64.70
2018-09-19T17:22:15.696Z,66.00
2018-09-19T17:24:44.011Z,66.10
2018-09-19T17:27:12.230Z,66.30
2018-09-19T17:29:40.493Z,66.20
2018-09-19T17:32:08.747Z,66.20
2018-09-19T17:34:36.995Z,65.90
2018-09-19T17:37:05.263Z,65.30
2018-09-19T17:39:33.483Z,65.80
2018-09-19T17:42:01.694Z,65.90
2018-09-19T17:44:29.955Z,66.30
2018-09-19T17:46:58.186Z,66.80
2018-09-19T17:49:26.407Z,66.90
2018-09-19T17:51:54.613Z,67.60
2018-09-19T17:54:22.835Z,66.60
2018-09-19T17:56:51.046Z,65.90
2018-09-19T17:59:19.265Z,65.30
2018-09-19T18:01:47.472Z,65.50
2018-09-19T18:04:15.708Z,66.00
2018-09-19T18:06:43.911Z,65.30
2018-09-19T18:09:12.180Z,66.10
2018-09-19T18:11:40.423Z,65.70
2018-09-19T18:14:08.671Z,66.00
2018-09-19T18:16:36.888Z,66.20
2018-09-19T18:19:05.136Z,66.90
2018-09-19T18:21:33.401Z,67.80
2018-09-19T18:24:01.659Z,67.40
2018-09-19T18:26:29.943Z,66.70
2018-09-19T18:28:58.179Z,66.70
2018-09-19T18:31:26.378Z,66.90
2018-09-19T18:33:54.628Z,67.50
2018-09-19T18:36:22.869Z,67.40
2018-09-19T18:38:51.079Z,68.60
2018-09-19T18:41:19.397Z,68.80
2018-09-19T18:43:47.736Z,68.60
2018-09-19T18:46:15.960Z,68.50
2018-09-19T18:48:44.177Z,68.70
2018-09-19T18:51:12.416Z,69.20
2018-09-19T18:53:40.623Z,69.80
2018-09-19T18:56:08.968Z,70.40
2018-09-19T18:58:37.303Z,70.30
2018-09-19T19:01:05.547Z,70.50
2018-09-19T19:03:33.801Z,70.90
2018-09-19T19:06:02.033Z,71.30
2018-09-19T19:08:30.247Z,72.00
2018-09-19T19:10:58.498Z,71.30
2018-09-19T19:13:26.716Z,72.50
2018-09-19T19:15:54.972Z,73.50
2018-09-19T19:18:23.511Z,73.00
2018-09-19T19:20:51.748Z,73.30
2018-09-19T19:23:19.965Z,75.30
2018-09-19T19:25:48.239Z,75.10
2018-09-19T19:28:16.511Z,76.00
2018-09-19T19:30:44.768Z,77.00
2018-09-19T19:33:12.967Z,77.20
2018-09-19T19:35:41.211Z,77.90
2018-09-19T19:38:09.466Z,79.00
2018-09-19T19:40:37.673Z,79.70
2018-09-19T19:43:06.016Z,80.10
2018-09-19T19:45:34.256Z,79.60
2018-09-19T19:48:02.471Z,79.90
2018-09-19T19:50:30.847Z,80.30
2018-09-19T19:52:59.067Z,81.20
2018-09-19T19:55:27.312Z,81.70
2018-09-19T19:57:55.524Z,82.30
2018-09-19T20:00:23.749Z,82.40
2018-09-19T20:02:52.007Z,82.50
2018-09-19T20:05:20.262Z,82.40
2018-09-19T20:07:48.474Z,83.50
2018-09-19T20:10:16.754Z,84.10
2018-09-19T20:12:45.034Z,85.00
2018-09-19T20:15:14.307Z,85.10
2018-09-19T20:17:42.544Z,85.40
2018-09-19T20:20:10.785Z,87.10
2018-09-19T20:22:39.002Z,87.00
2018-09-19T20:25:07.251Z,88.10
2018-09-19T20:27:35.459Z,88.40
2018-09-19T20:30:03.807Z,88.50
2018-09-19T20:32:31.996Z,89.80
2018-09-19T20:35:00.256Z,90.40
2018-09-19T20:37:28.492Z,90.60
2018-09-19T20:39:56.760Z,91.00
2018-09-19T20:42:24.971Z,91.10
2018-09-19T20:44:53.212Z,91.60
2018-09-19T20:47:21.422Z,92.00
2018-09-19T20:49:49.619Z,93.10
2018-09-19T20:52:17.864Z,93.10
2018-09-19T20:54:46.089Z,93.00
2018-09-19T20:57:14.383Z,92.60
2018-09-19T20:59:42.682Z,92.80
2018-09-19T21:02:10.884Z,92.60
2018-09-19T21:04:39.117Z,93.00
2018-09-19T21:07:07.444Z,93.30
2018-09-19T21:09:35.730Z,93.60
2018-09-19T21:12:03.959Z,93.50
2018-09-19T21:14:32.199Z,93.60
2018-09-19T21:17:00.428Z,93.90
2018-09-19T21:19:28.641Z,93.90
2018-09-19T21:21:56.902Z,94.30
2018-09-19T21:24:25.118Z,94.20
2018-09-19T21:26:53.348Z,94.50
2018-09-19T21:29:21.548Z,94.80
2018-09-19T21:31:49.816Z,94.90
2018-09-19T21:34:18.069Z,94.30
2018-09-19T21:36:46.293Z,94.80
2018-09-19T21:39:14.529Z,94.90
2018-09-19T21:41:42.779Z,95.30
2018-09-19T21:44:10.982Z,95.40
2018-09-19T21:46:39.208Z,95.20
2018-09-19T21:49:07.441Z,95.70
2018-09-19T21:51:35.671Z,95.30
2018-09-19T21:54:03.885Z,95.20
2018-09-19T21:56:32.124Z,95.00
2018-09-19T21:59:00.342Z,95.40
2018-09-19T22:01:33.977Z,95.40
2018-09-19T22:04:02.220Z,95.70
2018-09-19T22:06:30.459Z,96.30
2018-09-19T22:08:58.659Z,96.60
2018-09-19T22:11:26.899Z,96.60
2018-09-19T22:13:55.120Z,96.00
2018-09-19T22:16:23.336Z,95.40
2018-09-19T22:18:51.557Z,95.30
2018-09-19T22:21:19.792Z,94.80
2018-09-19T22:23:47.988Z,94.50
2018-09-19T22:26:16.225Z,94.30
2018-09-19T22:28:44.500Z,94.20
2018-09-19T22:31:12.736Z,94.40
2018-09-19T22:33:40.960Z,94.50
2018-09-19T22:36:09.203Z,94.60
2018-09-19T22:38:37.404Z,95.00
2018-09-19T22:41:05.723Z,95.20
2018-09-19T22:43:33.945Z,95.20
2018-09-19T22:46:02.547Z,95.50
2018-09-19T22:48:30.777Z,95.60
2018-09-19T22:50:58.977Z,96.20
2018-09-19T22:53:27.216Z,96.30
2018-09-19T22:55:55.428Z,96.30
2018-09-19T22:58:23.651Z,96.10
2018-09-19T23:00:51.846Z,96.40
2018-09-19T23:03:20.059Z,97.20
2018-09-19T23:05:48.267Z,97.50
2018-09-19T23:08:16.495Z,97.30
2018-09-19T23:10:44.711Z,96.70
2018-09-19T23:13:12.924Z,97.00
2018-09-19T23:15:41.168Z,97.40
2018-09-19T23:18:09.379Z,97.70
2018-09-19T23:20:37.596Z,98.00
2018-09-19T23:23:05.816Z,98.10
2018-09-19T23:25:34.092Z,98.50
2018-09-19T23:28:02.303Z,99.00
2018-09-19T23:30:30.505Z,99.50
2018-09-19T23:32:58.719Z,99.50
2018-09-19T23:35:26.923Z,99.70
2018-09-19T23:37:55.151Z,99.90
2018-09-19T23:40:23.395Z,99.90
2018-09-19T23:42:51.661Z,99.90
2018-09-19T23:45:19.957Z,99.90
2018-09-19T23:47:48.173Z,99.90
2018-09-19T23:50:16.368Z,99.90
2018-09-19T23:52:44.591Z,99.90
2018-09-19T23:55:12.792Z,99.90
2018-09-19T23:57:41.028Z,99.90
